createdAt,value
2018-07-30T00:00:28.015Z,34.9
2018-07-30T00:01:28.300Z,34.9
2018-07-30T00:02:28.072Z,34.9
2018-07-30T00:03:28.363Z,35.19
2018-07-30T00:04:28.392Z,35.49
2018-07-30T00:05:28.238Z,35.39
2018-07-30T00:06:28.182Z,35.29
2018-07-30T00:07:28.214Z,35.29
2018-07-30T00:08:28.241Z,35
2018-07-30T00:09:28.538Z,35.1
2018-07-30T00:10:28.554Z,35.58
2018-07-30T00:11:28.583Z,35.39
2018-07-30T00:12:28.352Z,35.39
2018-07-30T00:13:28.380Z,35.39
2018-07-30T00:14:28.667Z,35.57
2018-07-30T00:15:28.435Z,35.58
2018-07-30T00:16:28.722Z,35.97
2018-07-30T00:17:28.753Z,35.66
2018-07-30T00:18:28.782Z,35.66
2018-07-30T00:19:28.546Z,35.68
2018-07-30T00:20:28.867Z,35.78
2018-07-30T00:21:29.004Z,35.68
2018-07-30T00:22:28.896Z,35.97
2018-07-30T00:23:28.661Z,35.57
2018-07-30T00:24:28.687Z,36.07
2018-07-30T00:25:28.716Z,35.96
2018-07-30T00:26:29.008Z,35.96
2018-07-30T00:27:29.040Z,35.96
2018-07-30T00:28:28.800Z,35.86
2018-07-30T00:29:28.831Z,35.86
2018-07-30T00:30:29.115Z,36.15
2018-07-30T00:31:29.302Z,36.34
2018-07-30T00:32:29.169Z,36.24
2018-07-30T00:33:29.200Z,36.44
2018-07-30T00:34:28.967Z,36.34
2018-07-30T00:35:28.997Z,36.34
2018-07-30T00:36:29.282Z,36.34
2018-07-30T00:37:29.309Z,36.63
2018-07-30T00:38:29.084Z,36.73
2018-07-30T00:39:29.363Z,36.63
2018-07-30T00:40:29.395Z,36.73
2018-07-30T00:41:32.469Z,36.54
2018-07-30T00:42:29.448Z,36.63
2018-07-30T00:43:29.221Z,37.02
2018-07-30T00:44:29.507Z,36.93
2018-07-30T00:45:29.535Z,37.12
2018-07-30T00:46:29.301Z,36.44
2018-07-30T00:47:29.590Z,37.12
2018-07-30T00:48:29.357Z,37.12
2018-07-30T00:49:29.646Z,37.22
2018-07-30T00:50:29.673Z,37.22
2018-07-30T00:51:29.706Z,37.12
2018-07-30T00:52:29.725Z,37.22
2018-07-30T00:53:29.753Z,37.3
2018-07-30T00:54:29.783Z,37.01
2018-07-30T00:55:29.812Z,36.73
2018-07-30T00:56:29.842Z,36.91
2018-07-30T00:57:29.864Z,37.51
2018-07-30T00:58:29.894Z,37.49
2018-07-30T00:59:29.919Z,37.59
2018-07-30T01:00:29.951Z,37.59
2018-07-30T01:01:30.029Z,37.49
2018-07-30T01:02:30.009Z,37.49
2018-07-30T01:03:30.041Z,37.39
2018-07-30T01:04:30.063Z,37.68
2018-07-30T01:05:29.826Z,38.07
2018-07-30T01:06:30.116Z,37.2
2018-07-30T01:07:30.146Z,37.98
2018-07-30T01:08:30.181Z,38.07
2018-07-30T01:09:30.201Z,37.68
2018-07-30T01:10:29.968Z,37.88
2018-07-30T01:11:30.255Z,37.78
2018-07-30T01:12:30.284Z,37.88
2018-07-30T01:13:30.309Z,38.07
2018-07-30T01:14:30.581Z,38.37
2018-07-30T01:15:30.365Z,38.17
2018-07-30T01:16:30.399Z,38.27
2018-07-30T01:17:30.440Z,38.17
2018-07-30T01:18:30.186Z,38.07
2018-07-30T01:19:30.217Z,38.07
2018-07-30T01:20:30.505Z,38.07
2018-07-30T01:21:30.542Z,38.07
2018-07-30T01:22:30.557Z,37.78
2018-07-30T01:23:30.583Z,37.66
2018-07-30T01:24:30.351Z,37.68
2018-07-30T01:25:30.642Z,37.78
2018-07-30T01:26:30.666Z,38.27
2018-07-30T01:27:30.699Z,38.25
2018-07-30T01:28:30.724Z,38.27
2018-07-30T01:29:30.753Z,38.37
2018-07-30T01:30:30.782Z,38.54
2018-07-30T01:31:30.806Z,38.44
2018-07-30T01:32:30.832Z,38.54
2018-07-30T01:33:30.859Z,38.44
2018-07-30T01:34:30.887Z,38.54
2018-07-30T01:35:30.916Z,38.83
2018-07-30T01:36:30.942Z,38.83
2018-07-30T01:37:30.968Z,38.73
2018-07-30T01:38:30.743Z,38.73
2018-07-30T01:39:31.024Z,38.73
2018-07-30T01:40:31.050Z,38.73
2018-07-30T01:41:30.819Z,38.64
2018-07-30T01:42:31.106Z,38.64
2018-07-30T01:43:31.134Z,38.93
2018-07-30T01:44:31.161Z,39.03
2018-07-30T01:45:31.190Z,39.03
2018-07-30T01:46:31.217Z,39.03
2018-07-30T01:47:30.983Z,38.73
2018-07-30T01:48:31.268Z,38.93
2018-07-30T01:49:31.300Z,38.93
2018-07-30T01:50:31.326Z,38.83
2018-07-30T01:51:31.350Z,39.12
2018-07-30T01:52:31.119Z,38.93
2018-07-30T01:53:31.409Z,38.54
2018-07-30T01:54:31.436Z,38.93
2018-07-30T01:55:31.556Z,38.54
2018-07-30T01:56:31.230Z,38.93
2018-07-30T01:57:31.518Z,38.83
2018-07-30T01:58:31.550Z,38.83
2018-07-30T01:59:31.313Z,38.81
2018-07-30T02:00:31.599Z,39.11
2018-07-30T02:01:31.365Z,39.2
2018-07-30T02:02:31.655Z,39.11
2018-07-30T02:03:31.684Z,39.11
2018-07-30T02:04:31.708Z,39.11
2018-07-30T02:05:31.734Z,39.01
2018-07-30T02:06:31.761Z,39.29
2018-07-30T02:07:31.789Z,39.29
2018-07-30T02:08:31.824Z,39.49
2018-07-30T02:09:31.843Z,39.39
2018-07-30T02:10:31.869Z,39.49
2018-07-30T02:11:31.637Z,39.39
2018-07-30T02:12:31.927Z,39.39
2018-07-30T02:13:31.951Z,39.49
2018-07-30T02:14:31.981Z,39.59
2018-07-30T02:15:32.006Z,39.78
2018-07-30T02:16:32.046Z,39.49
2018-07-30T02:17:32.273Z,39.59
2018-07-30T02:18:32.089Z,39.59
2018-07-30T02:19:32.121Z,39.49
2018-07-30T02:20:32.145Z,39.49
2018-07-30T02:21:32.408Z,39.49
2018-07-30T02:22:32.195Z,39.49
2018-07-30T02:23:32.220Z,39.49
2018-07-30T02:24:31.988Z,39.69
2018-07-30T02:25:32.278Z,39.69
2018-07-30T02:26:32.302Z,39.69
2018-07-30T02:27:32.328Z,39.78
2018-07-30T02:28:32.100Z,39.76
2018-07-30T02:29:32.384Z,39.78
2018-07-30T02:30:32.417Z,39.88
2018-07-30T02:31:32.438Z,39.86
2018-07-30T02:32:32.206Z,40.26
2018-07-30T02:33:32.497Z,40.25
2018-07-30T02:34:32.264Z,40.36
2018-07-30T02:35:32.553Z,40.05
2018-07-30T02:36:32.591Z,40.08
2018-07-30T02:37:32.601Z,39.95
2018-07-30T02:38:32.650Z,39.95
2018-07-30T02:39:32.401Z,39.95
2018-07-30T02:40:32.687Z,40.05
2018-07-30T02:41:32.716Z,40.05
2018-07-30T02:42:32.811Z,40.15
2018-07-30T02:43:32.773Z,40.15
2018-07-30T02:44:32.530Z,40.25
2018-07-30T02:45:32.557Z,40.15
2018-07-30T02:46:32.841Z,40.44
2018-07-30T02:47:32.871Z,40.64
2018-07-30T02:48:32.910Z,40.05
2018-07-30T02:49:32.667Z,40.34
2018-07-30T02:50:32.691Z,40.05
2018-07-30T02:51:32.986Z,40.25
2018-07-30T02:52:33.018Z,40.34
2018-07-30T02:53:33.029Z,40.44
2018-07-30T02:54:33.058Z,40.34
2018-07-30T02:55:33.089Z,40.54
2018-07-30T02:56:32.855Z,40.44
2018-07-30T02:57:32.943Z,40.34
2018-07-30T02:58:33.173Z,40.34
2018-07-30T02:59:33.192Z,40.34
2018-07-30T03:00:33.221Z,40.54
2018-07-30T03:01:33.253Z,40.73
2018-07-30T03:02:33.293Z,40.83
2018-07-30T03:03:33.040Z,40.92
2018-07-30T03:04:33.327Z,40.92
2018-07-30T03:05:33.352Z,40.73
2018-07-30T03:06:33.380Z,40.92
2018-07-30T03:07:33.413Z,40.83
2018-07-30T03:08:33.172Z,40.83
2018-07-30T03:09:33.474Z,40.91
2018-07-30T03:10:33.228Z,41.12
2018-07-30T03:11:33.512Z,41.2
2018-07-30T03:12:33.289Z,41
2018-07-30T03:13:33.307Z,41.39
2018-07-30T03:14:33.600Z,41.2
2018-07-30T03:15:33.360Z,41.1
2018-07-30T03:16:33.395Z,41.1
2018-07-30T03:17:33.422Z,41.2
2018-07-30T03:18:33.707Z,41.2
2018-07-30T03:19:33.729Z,41.1
2018-07-30T03:20:33.755Z,41.3
2018-07-30T03:21:33.786Z,41.2
2018-07-30T03:22:33.807Z,41.1
2018-07-30T03:23:33.833Z,41.39
2018-07-30T03:24:33.867Z,41.3
2018-07-30T03:25:33.627Z,41.58
2018-07-30T03:26:33.912Z,41.3
2018-07-30T03:27:33.939Z,41.39
2018-07-30T03:28:33.708Z,41.39
2018-07-30T03:29:33.998Z,41.49
2018-07-30T03:30:34.025Z,41.58
2018-07-30T03:31:34.106Z,41.58
2018-07-30T03:32:34.072Z,41.49
2018-07-30T03:33:33.839Z,41.39
2018-07-30T03:34:34.125Z,41.39
2018-07-30T03:35:34.203Z,41.49
2018-07-30T03:36:34.179Z,41.49
2018-07-30T03:37:33.945Z,41.49
2018-07-30T03:38:34.235Z,41.39
2018-07-30T03:39:34.258Z,41.49
2018-07-30T03:40:34.294Z,41.78
2018-07-30T03:41:34.315Z,41.39
2018-07-30T03:42:34.084Z,41.49
2018-07-30T03:43:34.363Z,41.3
2018-07-30T03:44:34.390Z,41.39
2018-07-30T03:45:34.419Z,41.39
2018-07-30T03:46:34.453Z,41.3
2018-07-30T03:47:34.471Z,41.2
2018-07-30T03:48:34.501Z,41.39
2018-07-30T03:49:34.528Z,41.78
2018-07-30T03:50:34.549Z,41.88
2018-07-30T03:51:34.581Z,41.86
2018-07-30T03:52:34.605Z,41.86
2018-07-30T03:53:34.632Z,42.05
2018-07-30T03:54:34.700Z,42.05
2018-07-30T03:55:34.680Z,42.05
2018-07-30T03:56:34.708Z,42.24
2018-07-30T03:57:34.734Z,41.86
2018-07-30T03:58:34.766Z,41.95
2018-07-30T03:59:34.791Z,41.76
2018-07-30T04:00:34.815Z,41.76
2018-07-30T04:01:34.840Z,42.05
2018-07-30T04:02:34.607Z,42.14
2018-07-30T04:03:34.893Z,41.95
2018-07-30T04:04:34.917Z,42.05
2018-07-30T04:05:34.685Z,42.24
2018-07-30T04:06:35.066Z,42.34
2018-07-30T04:07:34.997Z,41.95
2018-07-30T04:08:35.023Z,42.44
2018-07-30T04:09:35.053Z,42.44
2018-07-30T04:10:34.820Z,42.44
2018-07-30T04:11:34.843Z,42.05
2018-07-30T04:12:35.172Z,42.63
2018-07-30T04:13:34.897Z,42.44
2018-07-30T04:14:35.184Z,42.24
2018-07-30T04:15:35.214Z,42.44
2018-07-30T04:16:34.976Z,42.34
2018-07-30T04:17:35.263Z,42.44
2018-07-30T04:18:35.286Z,42.44
2018-07-30T04:19:35.315Z,42.34
2018-07-30T04:20:35.346Z,42.63
2018-07-30T04:21:35.367Z,42.63
2018-07-30T04:22:35.405Z,42.63
2018-07-30T04:23:35.160Z,42.54
2018-07-30T04:24:35.445Z,42.41
2018-07-30T04:25:35.471Z,42.72
2018-07-30T04:26:35.544Z,42.61
2018-07-30T04:27:35.537Z,42.54
2018-07-30T04:28:35.558Z,42.92
2018-07-30T04:29:35.574Z,42.54
2018-07-30T04:30:35.347Z,42.61
2018-07-30T04:31:35.632Z,42.8
2018-07-30T04:32:35.653Z,42.9
2018-07-30T04:33:35.682Z,43.31
2018-07-30T04:34:35.711Z,43.09
2018-07-30T04:35:35.740Z,43.31
2018-07-30T04:36:35.769Z,43.29
2018-07-30T04:37:35.789Z,43.31
2018-07-30T04:38:35.551Z,43.19
2018-07-30T04:39:35.846Z,43.09
2018-07-30T04:40:35.609Z,43
2018-07-30T04:41:35.630Z,43
2018-07-30T04:42:35.915Z,42.8
2018-07-30T04:43:35.944Z,43
2018-07-30T04:44:35.707Z,43.09
2018-07-30T04:45:35.995Z,42.9
2018-07-30T04:46:35.761Z,43.09
2018-07-30T04:47:36.054Z,43.29
2018-07-30T04:48:36.073Z,43
2018-07-30T04:49:36.105Z,43.09
2018-07-30T04:50:36.126Z,43.48
2018-07-30T04:51:36.152Z,43.09
2018-07-30T04:52:35.917Z,43.58
2018-07-30T04:53:36.206Z,43.87
2018-07-30T04:54:36.233Z,43.77
2018-07-30T04:55:36.257Z,43.68
2018-07-30T04:56:36.282Z,43.68
2018-07-30T04:57:36.314Z,43.68
2018-07-30T04:58:36.073Z,43.87
2018-07-30T04:59:36.100Z,43.48
2018-07-30T05:00:36.389Z,43.48
2018-07-30T05:01:36.412Z,43.68
2018-07-30T05:02:36.447Z,43.48
2018-07-30T05:03:36.207Z,43.58
2018-07-30T05:04:36.495Z,43.87
2018-07-30T05:05:36.527Z,43.48
2018-07-30T05:06:36.542Z,43.77
2018-07-30T05:07:36.570Z,43.58
2018-07-30T05:08:36.349Z,43.58
2018-07-30T05:09:36.619Z,43.87
2018-07-30T05:10:36.647Z,43.58
2018-07-30T05:11:36.672Z,43.68
2018-07-30T05:12:36.698Z,43.68
2018-07-30T05:13:36.725Z,43.68
2018-07-30T05:14:36.751Z,44.16
2018-07-30T05:15:36.775Z,44.06
2018-07-30T05:16:36.801Z,43.68
2018-07-30T05:17:36.829Z,44.06
2018-07-30T05:18:36.857Z,44.16
2018-07-30T05:19:36.661Z,44.06
2018-07-30T05:20:36.905Z,43.58
2018-07-30T05:21:36.670Z,43.87
2018-07-30T05:22:36.961Z,44.16
2018-07-30T05:23:36.984Z,44.16
2018-07-30T05:24:36.752Z,43.96
2018-07-30T05:25:37.200Z,44.26
2018-07-30T05:26:37.062Z,44.26
2018-07-30T05:27:37.089Z,43.96
2018-07-30T05:28:36.851Z,44.16
2018-07-30T05:29:37.143Z,44.16
2018-07-30T05:30:37.165Z,44.06
2018-07-30T05:31:37.261Z,44.16
2018-07-30T05:32:36.963Z,44.35
2018-07-30T05:33:36.983Z,44.06
2018-07-30T05:34:37.277Z,43.87
2018-07-30T05:35:37.294Z,43.87
2018-07-30T05:36:37.319Z,44.35
2018-07-30T05:37:37.348Z,43.77
2018-07-30T05:38:37.371Z,44.16
2018-07-30T05:39:37.402Z,44.26
2018-07-30T05:40:37.164Z,43.96
2018-07-30T05:41:37.449Z,44.06
2018-07-30T05:42:37.478Z,43.87
2018-07-30T05:43:37.499Z,44.35
2018-07-30T05:44:37.269Z,44.45
2018-07-30T05:45:37.561Z,44.35
2018-07-30T05:46:37.629Z,44.74
2018-07-30T05:47:37.345Z,44.54
2018-07-30T05:48:37.631Z,44.54
2018-07-30T05:49:37.662Z,44.35
2018-07-30T05:50:37.691Z,44.64
2018-07-30T05:51:37.719Z,44.45
2018-07-30T05:52:37.734Z,44.45
2018-07-30T05:53:37.504Z,44.26
2018-07-30T05:54:37.803Z,44.54
2018-07-30T05:55:37.813Z,44.54
2018-07-30T05:56:37.578Z,44.54
2018-07-30T05:57:37.867Z,44.45
2018-07-30T05:58:37.893Z,44.74
2018-07-30T05:59:38.249Z,44.84
2018-07-30T06:00:37.943Z,44.93
2018-07-30T06:01:37.707Z,44.45
2018-07-30T06:02:37.997Z,44.54
2018-07-30T06:03:38.029Z,44.64
2018-07-30T06:04:38.063Z,44.84
2018-07-30T06:05:38.244Z,44.64
2018-07-30T06:06:38.101Z,44.84
2018-07-30T06:07:38.124Z,44.74
2018-07-30T06:08:38.151Z,44.74
2018-07-30T06:09:38.254Z,44.74
2018-07-30T06:10:38.201Z,44.74
2018-07-30T06:11:37.964Z,44.64
2018-07-30T06:12:38.256Z,44.84
2018-07-30T06:13:38.313Z,44.47
2018-07-30T06:14:38.302Z,44.67
2018-07-30T06:15:38.329Z,44.54
2018-07-30T06:16:38.355Z,44.45
2018-07-30T06:17:38.379Z,44.37
2018-07-30T06:18:38.146Z,44.37
2018-07-30T06:19:38.432Z,44.37
2018-07-30T06:20:38.460Z,44.06
2018-07-30T06:21:38.491Z,44.26
2018-07-30T06:22:38.248Z,44.27
2018-07-30T06:23:38.537Z,44.09
2018-07-30T06:24:38.566Z,44.09
2018-07-30T06:25:38.588Z,43.99
2018-07-30T06:26:38.627Z,44.27
2018-07-30T06:27:38.640Z,44.47
2018-07-30T06:28:38.666Z,43.89
2018-07-30T06:29:38.691Z,43.99
2018-07-30T06:30:38.721Z,44.37
2018-07-30T06:31:38.750Z,44.18
2018-07-30T06:32:38.770Z,43.6
2018-07-30T06:33:38.532Z,43.31
2018-07-30T06:34:38.820Z,43.89
2018-07-30T06:35:38.857Z,43.99
2018-07-30T06:36:38.874Z,43.7
2018-07-30T06:37:38.897Z,43.21
2018-07-30T06:38:38.926Z,43.02
2018-07-30T06:39:38.952Z,43.02
2018-07-30T06:40:38.713Z,42.92
2018-07-30T06:41:39.000Z,43.02
2018-07-30T06:42:39.098Z,43.02
2018-07-30T06:43:39.067Z,43.02
2018-07-30T06:44:39.079Z,43.02
2018-07-30T06:45:39.109Z,43.13
2018-07-30T06:46:39.130Z,43.04
2018-07-30T06:47:38.900Z,42.94
2018-07-30T06:48:38.923Z,43.04
2018-07-30T06:49:38.949Z,42.94
2018-07-30T06:50:39.235Z,42.94
2018-07-30T06:51:39.260Z,42.94
2018-07-30T06:52:39.026Z,42.94
2018-07-30T06:53:39.054Z,43.04
2018-07-30T06:54:39.338Z,43.04
2018-07-30T06:55:39.105Z,43.04
2018-07-30T06:56:39.394Z,43.13
2018-07-30T06:57:39.156Z,43.04
2018-07-30T06:58:39.444Z,42.94
2018-07-30T06:59:39.471Z,43.04
2018-07-30T07:00:39.496Z,42.85
2018-07-30T07:01:39.524Z,43.13
2018-07-30T07:02:39.554Z,43.04
2018-07-30T07:03:39.315Z,42.96
2018-07-30T07:04:39.600Z,43.06
2018-07-30T07:05:39.631Z,42.86
2018-07-30T07:06:39.653Z,42.96
2018-07-30T07:07:39.684Z,43.26
2018-07-30T07:08:39.703Z,43.35
2018-07-30T07:09:39.736Z,43.54
2018-07-30T07:10:39.762Z,43.74
2018-07-30T07:11:39.782Z,43.54
2018-07-30T07:12:39.551Z,43.54
2018-07-30T07:13:39.839Z,43.74
2018-07-30T07:14:39.861Z,43.74
2018-07-30T07:15:39.889Z,43.86
2018-07-30T07:16:39.722Z,43.66
2018-07-30T07:17:39.937Z,43.66
2018-07-30T07:18:39.972Z,43.57
2018-07-30T07:19:40.000Z,43.27
2018-07-30T07:20:39.777Z,42.99
2018-07-30T07:21:40.229Z,43.08
2018-07-30T07:22:40.069Z,43.08
2018-07-30T07:23:39.837Z,43.2
2018-07-30T07:24:40.128Z,43.1
2018-07-30T07:25:40.159Z,43.2
2018-07-30T07:26:40.176Z,43.49
2018-07-30T07:27:40.200Z,42.81
2018-07-30T07:28:40.228Z,42.91
2018-07-30T07:29:39.996Z,42.91
2018-07-30T07:30:40.023Z,43.01
2018-07-30T07:31:40.307Z,42.83
2018-07-30T07:32:40.335Z,42.54
2018-07-30T07:33:40.107Z,42.35
2018-07-30T07:34:40.391Z,41.96
2018-07-30T07:35:40.411Z,41.86
2018-07-30T07:36:40.445Z,41.86
2018-07-30T07:37:40.474Z,41.67
2018-07-30T07:38:40.506Z,41.59
2018-07-30T07:39:40.257Z,41.69
2018-07-30T07:40:40.290Z,41.1
2018-07-30T07:41:40.310Z,41.3
2018-07-30T07:42:40.755Z,41.49
2018-07-30T07:43:40.364Z,41.51
2018-07-30T07:44:40.657Z,40.91
2018-07-30T07:45:40.680Z,40.93
2018-07-30T07:46:40.442Z,41.03
2018-07-30T07:47:40.728Z,40.64
2018-07-30T07:48:40.940Z,40.54
2018-07-30T07:49:40.793Z,40.54
2018-07-30T07:50:41.167Z,40.56
2018-07-30T07:51:40.938Z,40.37
2018-07-30T07:52:40.603Z,40.47
2018-07-30T07:53:40.898Z,39.98
2018-07-30T07:54:40.948Z,40.08
2018-07-30T07:55:40.962Z,40.48
2018-07-30T07:56:40.969Z,40.29
2018-07-30T07:57:40.739Z,40.09
2018-07-30T07:58:41.179Z,40
2018-07-30T07:59:41.049Z,39.8
2018-07-30T08:00:41.079Z,39.61
2018-07-30T08:01:41.102Z,39.51
2018-07-30T08:02:41.129Z,39.53
2018-07-30T08:03:41.163Z,39.43
2018-07-30T08:04:41.189Z,39.04
2018-07-30T08:05:41.214Z,39.14
2018-07-30T08:06:41.255Z,39.06
2018-07-30T08:07:41.266Z,38.85
2018-07-30T08:08:41.292Z,38.96
2018-07-30T08:09:41.449Z,38.77
2018-07-30T08:10:41.351Z,38.77
2018-07-30T08:11:41.381Z,38.67
2018-07-30T08:12:41.409Z,38.28
2018-07-30T08:13:41.170Z,37.89
2018-07-30T08:14:41.197Z,38.38
2018-07-30T08:15:41.485Z,38.2
2018-07-30T08:16:41.515Z,38.3
2018-07-30T08:17:41.542Z,38.2
2018-07-30T08:18:41.565Z,37.62
2018-07-30T08:19:41.592Z,37.35
2018-07-30T08:20:41.618Z,37.25
2018-07-30T08:21:41.660Z,37.25
2018-07-30T08:22:41.673Z,36.96
2018-07-30T08:23:41.699Z,37.15
2018-07-30T08:24:41.730Z,36.88
2018-07-30T08:25:41.756Z,37.07
2018-07-30T08:26:41.530Z,36.88
2018-07-30T08:27:41.814Z,36.49
2018-07-30T08:28:41.582Z,36.29
2018-07-30T08:29:41.911Z,36.02
2018-07-30T08:30:41.898Z,36.31
2018-07-30T08:31:41.925Z,36.21
2018-07-30T08:32:41.950Z,35.45
2018-07-30T08:33:42.006Z,35.74
2018-07-30T08:34:42.007Z,35.94
2018-07-30T08:35:41.776Z,35.84
2018-07-30T08:36:41.800Z,35.75
2018-07-30T08:37:42.089Z,35.66
2018-07-30T08:38:42.117Z,35.19
2018-07-30T08:39:42.145Z,34.6
2018-07-30T08:40:42.169Z,34.8
2018-07-30T08:41:42.200Z,34.5
2018-07-30T08:42:42.239Z,34.52
2018-07-30T08:43:42.258Z,34.23
2018-07-30T08:44:42.025Z,33.84
2018-07-30T08:45:42.313Z,33.56
2018-07-30T08:46:42.340Z,33.56
2018-07-30T08:47:42.372Z,33.26
2018-07-30T08:48:42.500Z,32.79
2018-07-30T08:49:42.436Z,32.99
2018-07-30T08:50:42.469Z,32.6
2018-07-30T08:51:42.483Z,32.61
2018-07-30T08:52:42.251Z,32.22
2018-07-30T08:53:42.299Z,32.32
2018-07-30T08:54:42.307Z,32.22
2018-07-30T08:55:42.338Z,31.63
2018-07-30T08:56:42.631Z,31.83
2018-07-30T08:57:42.658Z,31.74
2018-07-30T08:58:42.424Z,30.96
2018-07-30T08:59:42.715Z,30.77
2018-07-30T09:00:42.484Z,30.96
2018-07-30T09:01:42.772Z,30.77
2018-07-30T09:02:42.796Z,30.47
2018-07-30T09:03:42.838Z,30.67
2018-07-30T09:04:42.858Z,30.37
2018-07-30T09:05:42.885Z,30.47
2018-07-30T09:06:42.653Z,30.49
2018-07-30T09:07:42.686Z,30.49
2018-07-30T09:08:42.975Z,30.19
2018-07-30T09:09:43.000Z,30.1
2018-07-30T09:10:43.037Z,30.11
2018-07-30T09:11:43.065Z,30.11
2018-07-30T09:12:43.263Z,29.82
2018-07-30T09:13:43.116Z,29.43
2018-07-30T09:14:43.148Z,29.34
2018-07-30T09:15:42.917Z,29.34
2018-07-30T09:16:43.214Z,29.14
2018-07-30T09:17:42.977Z,29.34
2018-07-30T09:18:43.007Z,28.85
2018-07-30T09:19:43.297Z,29.16
2018-07-30T09:20:43.334Z,29.25
2018-07-30T09:21:43.352Z,28.37
2018-07-30T09:22:43.387Z,28.77
2018-07-30T09:23:43.152Z,28.68
2018-07-30T09:24:43.443Z,28.09
2018-07-30T09:25:43.478Z,27.8
2018-07-30T09:26:43.503Z,28.09
2018-07-30T09:27:43.539Z,27.8
2018-07-30T09:28:43.561Z,28
2018-07-30T09:29:43.592Z,28
2018-07-30T09:30:43.364Z,27.61
2018-07-30T09:31:43.392Z,27.51
2018-07-30T09:32:43.819Z,27.43
2018-07-30T09:33:43.728Z,27.53
2018-07-30T09:34:43.753Z,27.43
2018-07-30T09:35:43.774Z,26.93
2018-07-30T09:36:43.544Z,26.93
2018-07-30T09:37:43.574Z,26.65
2018-07-30T09:38:43.957Z,26.56
2018-07-30T09:39:43.965Z,26.07
2018-07-30T09:40:43.925Z,25.87
2018-07-30T09:41:43.697Z,26.17
2018-07-30T09:42:44.036Z,26.18
2018-07-30T09:43:44.040Z,25.98
2018-07-30T09:44:44.096Z,25.88
2018-07-30T09:45:44.087Z,25.49
2018-07-30T09:46:44.117Z,25.4
2018-07-30T09:47:44.150Z,25.6
2018-07-30T09:48:44.168Z,25.7
2018-07-30T09:49:44.202Z,25.4
2018-07-30T09:50:44.464Z,25.51
2018-07-30T09:51:44.005Z,25.02
2018-07-30T09:52:44.036Z,25.22
2018-07-30T09:53:44.324Z,25.02
2018-07-30T09:54:44.356Z,24.92
2018-07-30T09:55:44.126Z,24.74
2018-07-30T09:56:44.157Z,24.54
2018-07-30T09:57:44.449Z,24.93
2018-07-30T09:58:44.222Z,24.65
2018-07-30T09:59:44.512Z,24.55
2018-07-30T10:00:44.547Z,24.55
2018-07-30T10:01:44.313Z,24.65
2018-07-30T10:02:44.605Z,24.07
2018-07-30T10:03:44.640Z,23.77
2018-07-30T10:04:44.668Z,24.07
2018-07-30T10:05:44.700Z,23.79
2018-07-30T10:06:44.471Z,23.39
2018-07-30T10:07:44.764Z,22.89
2018-07-30T10:08:44.794Z,23.19
2018-07-30T10:09:44.566Z,23.59
2018-07-30T10:10:44.858Z,23.4
2018-07-30T10:11:45.013Z,23.11
2018-07-30T10:12:44.681Z,23.11
2018-07-30T10:13:44.694Z,23
2018-07-30T10:14:44.987Z,22.71
2018-07-30T10:15:44.760Z,22.92
2018-07-30T10:16:45.049Z,22.33
2018-07-30T10:17:45.286Z,22.42
2018-07-30T10:18:45.187Z,22.72
2018-07-30T10:19:45.145Z,22.62
2018-07-30T10:20:45.178Z,22.42
2018-07-30T10:21:45.210Z,22.63
2018-07-30T10:22:45.245Z,22.24
2018-07-30T10:23:45.429Z,21.84
2018-07-30T10:24:45.048Z,22.14
2018-07-30T10:25:45.342Z,21.56
2018-07-30T10:26:45.374Z,21.85
2018-07-30T10:27:45.404Z,21.85
2018-07-30T10:28:45.436Z,21.96
2018-07-30T10:29:45.470Z,21.96
2018-07-30T10:30:45.361Z,21.47
2018-07-30T10:31:45.544Z,21.47
2018-07-30T10:32:45.567Z,21.37
2018-07-30T10:33:45.340Z,20.98
2018-07-30T10:34:45.637Z,21.18
2018-07-30T10:35:45.678Z,20.78
2018-07-30T10:36:45.439Z,20.68
2018-07-30T10:37:45.734Z,20.49
2018-07-30T10:38:45.772Z,20.3
2018-07-30T10:39:45.818Z,20.4
2018-07-30T10:40:45.836Z,20.2
2018-07-30T10:41:45.864Z,20.1
2018-07-30T10:42:45.896Z,20
2018-07-30T10:43:45.933Z,20.1
2018-07-30T10:44:45.962Z,19.9
2018-07-30T10:45:45.996Z,19.9
2018-07-30T10:46:46.032Z,20
2018-07-30T10:47:45.804Z,19.81
2018-07-30T10:48:46.101Z,20
2018-07-30T10:49:46.141Z,19.41
2018-07-30T10:50:46.163Z,19.51
2018-07-30T10:51:46.267Z,19.51
2018-07-30T10:52:46.230Z,19.41
2018-07-30T10:53:46.021Z,19.6
2018-07-30T10:54:46.298Z,19.31
2018-07-30T10:55:46.332Z,19.41
2018-07-30T10:56:46.366Z,19.51
2018-07-30T10:57:46.401Z,19.51
2018-07-30T10:58:46.430Z,19.51
2018-07-30T10:59:46.204Z,19.51
2018-07-30T11:00:46.505Z,19.6
2018-07-30T11:01:46.533Z,19.51
2018-07-30T11:02:46.569Z,19.51
2018-07-30T11:03:46.607Z,19.5
2018-07-30T11:04:46.632Z,19.9
2018-07-30T11:05:46.675Z,19.79
2018-07-30T11:06:46.699Z,19.4
2018-07-30T11:07:46.850Z,19.5
2018-07-30T11:08:46.768Z,19.4
2018-07-30T11:09:46.603Z,19.7
2018-07-30T11:10:46.842Z,20.09
2018-07-30T11:11:46.609Z,19.89
2018-07-30T11:12:46.901Z,20
2018-07-30T11:13:46.938Z,19.6
2018-07-30T11:14:46.742Z,19.21
2018-07-30T11:15:47.003Z,19.4
2018-07-30T11:16:46.778Z,19.51
2018-07-30T11:17:47.075Z,19.21
2018-07-30T11:18:46.844Z,18.92
2018-07-30T11:19:46.880Z,18.73
2018-07-30T11:20:46.914Z,18.63
2018-07-30T11:21:47.347Z,18.82
2018-07-30T11:22:47.248Z,18.73
2018-07-30T11:23:47.015Z,18.52
2018-07-30T11:24:47.362Z,18.82
2018-07-30T11:25:47.351Z,18.82
2018-07-30T11:26:47.117Z,18.04
2018-07-30T11:27:47.437Z,18.04
2018-07-30T11:28:47.458Z,17.94
2018-07-30T11:29:47.483Z,18.24
2018-07-30T11:30:47.254Z,17.74
2018-07-30T11:31:47.553Z,17.84
2018-07-30T11:32:47.588Z,17.65
2018-07-30T11:33:47.358Z,17.85
2018-07-30T11:34:47.655Z,17.85
2018-07-30T11:35:47.690Z,17.85
2018-07-30T11:36:47.719Z,18.05
2018-07-30T11:37:47.755Z,17.86
2018-07-30T11:38:47.792Z,17.66
2018-07-30T11:39:47.825Z,17.86
2018-07-30T11:40:47.600Z,17.86
2018-07-30T11:41:47.896Z,17.77
2018-07-30T11:42:48.036Z,17.47
2018-07-30T11:43:47.781Z,17.57
2018-07-30T11:44:47.997Z,17.58
2018-07-30T11:45:48.031Z,17.68
2018-07-30T11:46:48.067Z,17.48
2018-07-30T11:47:47.839Z,17.69
2018-07-30T11:48:47.924Z,17.39
2018-07-30T11:49:48.188Z,17.09
2018-07-30T11:50:48.249Z,17.09
2018-07-30T11:51:48.240Z,17.1
2018-07-30T11:52:48.273Z,17
2018-07-30T11:53:48.049Z,17.2
2018-07-30T11:54:48.345Z,17
2018-07-30T11:55:48.386Z,17
2018-07-30T11:56:48.420Z,16.81
2018-07-30T11:57:48.453Z,16.72
2018-07-30T11:58:48.487Z,16.82
2018-07-30T11:59:48.520Z,16.52
2018-07-30T12:00:48.555Z,16.72
2018-07-30T12:01:48.771Z,16.13
2018-07-30T12:02:48.639Z,16.22
2018-07-30T12:03:48.660Z,16.33
2018-07-30T12:04:48.700Z,16.93
2018-07-30T12:05:48.734Z,16.22
2018-07-30T12:06:48.771Z,16.33
2018-07-30T12:07:48.546Z,16.33
2018-07-30T12:08:48.905Z,16.14
2018-07-30T12:09:48.875Z,16.54
2018-07-30T12:10:48.913Z,16.44
2018-07-30T12:11:48.945Z,16.15
2018-07-30T12:12:48.982Z,15.65
2018-07-30T12:13:48.765Z,15.65
2018-07-30T12:14:48.792Z,15.95
2018-07-30T12:15:49.090Z,15.86
2018-07-30T12:16:48.864Z,15.46
2018-07-30T12:17:49.159Z,15.46
2018-07-30T12:18:49.251Z,15.46
2018-07-30T12:19:48.972Z,15.47
2018-07-30T12:20:49.313Z,15.47
2018-07-30T12:21:49.407Z,15.26
2018-07-30T12:22:49.339Z,15.27
2018-07-30T12:23:49.447Z,15.27
2018-07-30T12:24:49.153Z,15.37
2018-07-30T12:25:49.446Z,14.97
2018-07-30T12:26:49.502Z,14.98
2018-07-30T12:27:49.534Z,14.97
2018-07-30T12:28:49.296Z,14.88
2018-07-30T12:29:49.331Z,14.88
2018-07-30T12:30:49.653Z,14.48
2018-07-30T12:31:49.665Z,14.58
2018-07-30T12:32:49.701Z,14.69
2018-07-30T12:33:49.745Z,14.69
2018-07-30T12:34:49.774Z,14.69
2018-07-30T12:35:49.810Z,14.69
2018-07-30T12:36:49.850Z,14.49
2018-07-30T12:37:49.882Z,14.39
2018-07-30T12:38:49.945Z,14.29
2018-07-30T12:39:49.956Z,14.4
2018-07-30T12:40:50.011Z,14.4
2018-07-30T12:41:50.121Z,14.29
2018-07-30T12:42:50.069Z,14.4
2018-07-30T12:43:50.107Z,14.2
2018-07-30T12:44:50.233Z,14
2018-07-30T12:45:50.176Z,14.2
2018-07-30T12:46:50.217Z,13.81
2018-07-30T12:47:50.248Z,13.8
2018-07-30T12:48:50.302Z,14.11
2018-07-30T12:49:50.321Z,13.91
2018-07-30T12:50:50.366Z,13.91
2018-07-30T12:51:50.400Z,14.01
2018-07-30T12:52:50.443Z,13.91
2018-07-30T12:53:50.477Z,13.81
2018-07-30T12:54:50.544Z,13.81
2018-07-30T12:55:50.288Z,13.71
2018-07-30T12:56:50.671Z,13.82